Time;durP1;ratioP1;P1;durP2;ratioP2;P2;SDS_P1;SDS_P2;PMS_P1;PMS_P2;Temp;Humidity;BMP_temperature;BMP_pressure;BME280_temperature;BME280_humidity;BME280_pressure;Samples;Min_cycle;Max_cycle;Signal;HPM_P1;HPM_P2
2022/04/13 00:01:57;;;;;;;;;37.00;33.40;;;;;11.01;38.93;99272.47;6173314;28;96945;-73
2022/04/13 00:05:01;;;;;;;;;40.00;34.50;;;;;10.82;38.97;99263.44;6086923;28;96445;-72
2022/04/13 00:08:06;;;;;;;;;40.00;33.60;;;;;10.88;39.07;99276.06;6087098;28;97335;-72
2022/04/13 00:11:10;;;;;;;;;40.40;34.00;;;;;10.79;39.38;99285.44;6085803;28;97064;-70
2022/04/13 00:14:13;;;;;;;;;38.50;32.75;;;;;10.50;39.65;99235.56;6069823;28;99493;-72
2022/04/13 00:17:18;;;;;;;;;42.75;35.00;;;;;10.73;39.59;99281.72;6085842;28;97340;-68
2022/04/13 00:20:22;;;;;;;;;39.00;32.75;;;;;10.70;39.75;99276.75;6087920;28;96662;-72
2022/04/13 00:23:26;;;;;;;;;39.00;33.00;;;;;10.66;39.91;99282.78;6085558;28;97456;-69
2022/04/13 00:26:29;;;;;;;;;39.60;32.60;;;;;10.63;40.09;99277.81;6075376;28;98054;-70
2022/04/13 00:29:32;;;;;;;;;41.50;34.00;;;;;10.38;40.15;99248.84;6092449;28;96826;-71
2022/04/13 00:32:37;;;;;;;;;38.00;33.00;;;;;10.52;40.19;99284.69;6085339;28;97464;-72
2022/04/13 00:35:40;;;;;;;;;37.60;33.00;;;;;10.51;40.20;99283.03;6067820;28;100521;-70
2022/04/13 00:38:43;;;;;;;;;45.20;35.20;;;;;10.49;40.00;99293.22;6114916;28;97519;-71
2022/04/13 00:41:47;;;;;;;;;43.50;34.25;;;;;10.43;40.08;99286.78;6104177;28;97379;-73
2022/04/13 00:44:50;;;;;;;;;43.50;35.00;;;;;10.36;40.22;99280.56;6085399;28;99510;-69
2022/04/13 00:47:55;;;;;;;;;39.00;32.50;;;;;10.24;40.65;99281.44;6069308;28;99674;-72
2022/04/13 00:50:59;;;;;;;;;40.00;33.00;;;;;10.15;40.43;99286.19;6086526;28;98306;-69
2022/04/13 00:54:04;;;;;;;;;40.80;34.40;;;;;10.04;40.52;99284.13;6087373;28;97856;-73
2022/04/13 00:57:09;;;;;;;;;36.00;32.00;;;;;9.91;40.53;99273.38;6079696;28;97831;-72
2022/04/13 01:00:15;;;;;;;;;38.60;32.00;;;;;9.95;40.85;99293.47;6103199;28;98330;-70
2022/04/13 01:03:21;;;;;;;;;36.00;32.00;;;;;9.88;40.61;99296.13;6087867;28;97429;-69
2022/04/13 01:06:27;;;;;;;;;36.25;31.75;;;;;9.83;40.95;99289.72;6090355;28;97512;-71
2022/04/13 01:09:31;;;;;;;;;40.00;33.50;;;;;9.76;41.10;99289.72;6119549;28;96928;-71
2022/04/13 01:12:34;;;;;;;;;40.60;33.00;;;;;9.73;41.38;99284.75;6088236;28;96510;-70
2022/04/13 01:15:38;;;;;;;;;38.75;32.75;;;;;9.71;41.43;99280.63;6088122;28;96492;-69
2022/04/13 01:18:43;;;;;;;;;37.40;31.40;;;;;9.70;41.25;99281.66;6092473;28;96430;-69
2022/04/13 01:21:52;;;;;;;;;37.00;32.20;;;;;9.65;41.31;99292.19;6089395;28;96675;-73
2022/04/13 01:24:57;;;;;;;;;39.00;33.00;;;;;9.61;41.46;99286.41;6098527;28;96866;-69
2022/04/13 01:28:00;;;;;;;;;36.40;32.00;;;;;9.55;41.62;99277.28;6116834;28;96793;-70
2022/04/13 01:31:03;;;;;;;;;38.40;32.00;;;;;9.49;41.79;99271.88;6159474;28;98046;-71
2022/04/13 01:34:08;;;;;;;;;36.00;32.00;;;;;9.45;41.98;99273.34;6087994;28;97045;-70
2022/04/13 01:37:11;;;;;;;;;36.00;32.00;;;;;9.39;42.04;99269.59;6062602;28;99568;-69
2022/04/13 01:40:16;;;;;;;;;41.50;34.50;;;;;9.41;41.94;99275.63;6088803;28;97378;-71
2022/04/13 01:43:19;;;;;;;;;41.25;33.25;;;;;9.36;42.14;99275.41;6088634;28;96399;-70
2022/04/13 01:46:22;;;;;;;;;43.20;35.00;;;;;9.28;42.49;99277.47;6087506;28;96666;-70
2022/04/13 01:49:25;;;;;;;;;41.00;32.60;;;;;9.30;42.36;99278.06;6087276;28;96844;-70
2022/04/13 01:52:29;;;;;;;;;39.80;33.00;;;;;9.25;42.24;99280.53;6071604;28;97086;-70
2022/04/13 01:55:33;;;;;;;;;41.80;33.40;;;;;9.20;42.32;99281.16;6089498;28;96264;-74
2022/04/13 01:58:37;;;;;;;;;40.00;34.40;;;;;9.14;42.74;99288.16;6109768;28;96988;-70
2022/04/13 02:01:44;;;;;;;;;37.80;33.00;;;;;9.10;42.82;99281.53;6137740;28;97591;-71
2022/04/13 02:04:48;;;;;;;;;42.60;34.00;;;;;9.09;42.71;99274.50;6087304;28;100424;-72
2022/04/13 02:07:52;;;;;;;;;37.40;32.00;;;;;9.06;42.82;99274.91;6087775;28;96905;-68
2022/04/13 02:10:56;;;;;;;;;37.00;32.25;;;;;9.03;42.91;99277.19;6184495;28;98511;-71
2022/04/13 02:13:59;;;;;;;;;36.80;31.80;;;;;8.96;42.87;99274.47;6123951;28;97197;-73
2022/04/13 02:17:03;;;;;;;;;40.00;33.00;;;;;8.92;42.98;99272.38;6071017;28;96718;-72
2022/04/13 02:20:08;;;;;;;;;37.60;32.00;;;;;8.86;43.20;99270.50;6091977;28;99363;-72
2022/04/13 02:23:12;;;;;;;;;40.40;34.40;;;;;8.59;43.31;99234.63;6088220;28;97361;-69
2022/04/13 02:26:17;;;;;;;;;40.60;33.60;;;;;8.81;43.47;99275.63;6087372;28;99596;-70
2022/04/13 02:29:20;;;;;;;;;40.50;33.00;;;;;8.79;43.50;99272.34;6090739;28;97062;-69
2022/04/13 02:32:23;;;;;;;;;38.60;31.60;;;;;8.78;43.59;99271.50;6081670;28;96179;-68
2022/04/13 02:35:26;;;;;;;;;41.00;33.00;;;;;8.79;43.58;99277.72;6087825;28;99557;-69
2022/04/13 02:38:30;;;;;;;;;41.40;33.00;;;;;8.78;43.53;99284.13;6085996;28;96653;-70
2022/04/13 02:41:34;;;;;;;;;37.00;32.00;;;;;8.77;43.54;99285.13;6116664;28;96594;-72
2022/04/13 02:44:38;;;;;;;;;38.60;33.00;;;;;8.82;43.60;99280.00;6230311;28;97388;-72
2022/04/13 02:47:41;;;;;;;;;38.00;33.00;;;;;8.82;43.46;99282.69;6212099;28;96894;-70
2022/04/13 02:50:44;;;;;;;;;37.80;32.40;;;;;8.83;43.32;99287.88;6131754;28;96377;-67
2022/04/13 02:53:48;;;;;;;;;41.50;32.00;;;;;8.75;43.37;99296.09;6086276;28;98225;-68
2022/04/13 02:56:52;;;;;;;;;31.00;30.00;;;;;8.69;43.75;99289.66;6071251;28;96952;-71
2022/04/13 02:59:56;;;;;;;;;38.00;32.00;;;;;8.70;43.36;99299.38;6190327;28;97011;-67
2022/04/13 03:02:59;;;;;;;;;33.40;30.00;;;;;8.61;43.66;99294.38;6078859;28;97118;-71
2022/04/13 03:06:03;;;;;;;;;33.20;30.00;;;;;8.52;43.71;99287.50;6078290;28;96723;-70
2022/04/13 03:09:07;;;;;;;;;38.00;31.00;;;;;8.32;43.79;99259.69;6097785;28;96656;-71
2022/04/13 03:12:12;;;;;;;;;38.40;33.00;;;;;8.47;43.90;99284.56;6086319;28;98768;-70
2022/04/13 03:15:15;;;;;;;;;37.00;33.00;;;;;8.48;43.82;99284.38;6078389;28;96571;-67
2022/04/13 03:18:18;;;;;;;;;38.00;32.60;;;;;8.48;43.95;99292.44;6098150;28;98893;-71
2022/04/13 03:21:22;;;;;;;;;38.50;32.75;;;;;8.37;44.11;99284.09;6087362;28;96989;-68
2022/04/13 03:24:25;;;;;;;;;39.00;32.00;;;;;7.56;44.15;99162.97;6092588;28;97152;-70
2022/04/13 03:27:30;;;;;;;;;36.00;30.00;;;;;8.41;43.95;99298.78;6092860;28;96591;-69
2022/04/13 03:30:33;;;;;;;;;38.75;32.00;;;;;8.39;43.86;99296.31;6089134;28;96347;-68
2022/04/13 03:33:37;;;;;;;;;37.60;32.00;;;;;8.21;44.47;99302.16;6091504;28;98382;-67
2022/04/13 03:36:40;;;;;;;;;45.50;35.00;;;;;8.20;44.39;99300.53;6112791;28;97124;-68
2022/04/13 03:39:43;;;;;;;;;37.00;32.00;;;;;8.21;44.50;99301.31;6187200;28;97363;-68
2022/04/13 03:42:48;;;;;;;;;41.80;32.20;;;;;8.13;44.53;99309.53;6216948;28;96353;-68
2022/04/13 03:45:51;;;;;;;;;35.60;30.60;;;;;8.13;44.65;99306.84;6118478;28;98103;-69
2022/04/13 03:48:54;;;;;;;;;37.00;31.00;;;;;8.13;44.63;99309.53;6094090;28;98438;-68
2022/04/13 03:51:57;;;;;;;;;36.80;31.00;;;;;8.09;44.86;99303.75;6094676;28;97398;-68
2022/04/13 03:55:02;;;;;;;;;40.00;33.00;;;;;8.11;44.79;99316.97;6084410;28;97802;-68
2022/04/13 03:58:06;;;;;;;;;33.33;30.00;;;;;8.10;44.48;99316.16;6166661;28;96865;-69
2022/04/13 04:01:09;;;;;;;;;38.00;32.00;;;;;8.02;44.63;99312.75;6075755;28;99399;-67
2022/04/13 04:04:13;;;;;;;;;34.75;31.00;;;;;7.91;45.26;99314.13;6094935;28;97011;-69
2022/04/13 04:07:17;;;;;;;;;37.00;32.00;;;;;7.98;45.21;99323.06;6067966;28;96755;-71
2022/04/13 04:10:21;;;;;;;;;35.00;30.00;;;;;7.97;45.25;99312.50;6074516;28;98420;-67
2022/04/13 04:13:26;;;;;;;;;35.00;30.00;;;;;7.79;45.10;99291.53;6093546;28;97983;-70
2022/04/13 04:16:29;;;;;;;;;36.00;32.00;;;;;7.97;44.98;99332.13;6143370;28;96818;-69
2022/04/13 04:19:33;;;;;;;;;38.00;32.00;;;;;7.96;44.92;99321.59;6112155;28;96146;-68
2022/04/13 04:22:36;;;;;;;;;38.60;32.80;;;;;7.71;45.46;99297.88;6091757;28;96604;-68
2022/04/13 04:25:40;;;;;;;;;33.00;30.00;;;;;8.00;44.87;99326.41;6104521;28;96397;-68
2022/04/13 04:28:44;;;;;;;;;33.00;30.00;;;;;8.07;44.70;99329.94;6106717;28;97502;-67
2022/04/13 04:31:59;;;;;;;;;37.00;31.00;;;;;8.18;44.48;99326.72;6085507;28;96674;-69
2022/04/13 04:35:04;;;;;;;;;36.20;32.00;;;;;8.26;44.47;99329.25;6086704;28;97407;-69
2022/04/13 04:38:07;;;;;;;;;31.50;25.75;;;;;8.34;44.24;99331.00;6102287;28;97389;-69
2022/04/13 04:41:11;;;;;;;;;35.80;30.00;;;;;8.42;43.97;99328.16;6090327;28;96794;-67
2022/04/13 04:44:15;;;;;;;;;36.00;30.75;;;;;8.54;43.87;99337.34;6086489;28;97424;-69
2022/04/13 04:47:18;;;;;;;;;36.40;32.00;;;;;8.66;43.51;99351.88;6116859;28;96639;-69
2022/04/13 04:50:23;;;;;;;;;34.00;30.80;;;;;8.64;43.51;99342.38;6101585;28;96963;-69
2022/04/13 04:53:26;;;;;;;;;36.60;31.00;;;;;8.81;42.81;99349.06;6115842;28;96801;-71
2022/04/13 04:56:30;;;;;;;;;36.40;31.20;;;;;8.85;43.22;99342.25;6100875;28;96846;-69
2022/04/13 04:59:35;;;;;;;;;36.00;30.00;;;;;9.01;42.65;99355.38;6128657;28;97225;-70
2022/04/13 05:02:39;;;;;;;;;36.50;30.00;;;;;9.20;42.72;99359.16;6106519;28;97397;-69
2022/04/13 05:05:42;;;;;;;;;33.40;30.00;;;;;9.35;42.29;99365.22;6093615;28;97542;-69
2022/04/13 05:08:46;;;;;;;;;37.40;31.40;;;;;9.45;41.89;99371.06;6134772;28;98697;-71
2022/04/13 05:11:49;;;;;;;;;34.20;31.00;;;;;9.56;41.80;99369.63;6076383;28;98338;-69
2022/04/13 05:14:55;;;;;;;;;33.40;30.00;;;;;9.72;41.69;99369.25;6085657;28;97385;-68
2022/04/13 05:17:59;;;;;;;;;34.60;30.00;;;;;9.80;41.47;99368.22;6164730;28;96425;-68
2022/04/13 05:21:04;;;;;;;;;33.67;30.33;;;;;9.72;41.50;99353.13;6079006;28;98636;-70
2022/04/13 05:24:08;;;;;;;;;34.00;30.00;;;;;9.96;41.26;99374.06;6082393;28;96541;-68
2022/04/13 05:27:11;;;;;;;;;33.20;31.00;;;;;10.14;40.95;99369.91;6064359;28;97075;-68
2022/04/13 05:30:15;;;;;;;;;33.50;30.50;;;;;10.19;40.88;99367.47;6080516;28;97521;-68
2022/04/13 05:33:19;;;;;;;;;36.80;32.00;;;;;10.29;40.81;99363.31;6068602;28;96439;-66
2022/04/13 05:36:22;;;;;;;;;35.00;30.00;;;;;10.35;40.62;99349.00;6075564;28;97793;-69
2022/04/13 05:39:25;;;;;;;;;35.00;31.00;;;;;10.41;40.01;99339.25;6072702;28;97333;-65
2022/04/13 05:42:31;;;;;;;;;34.00;30.00;;;;;10.72;40.10;99369.06;6049903;28;97143;-66
2022/04/13 05:45:36;;;;;;;;;40.00;32.00;;;;;10.88;39.84;99358.84;6085569;28;96747;-66
2022/04/13 05:48:39;;;;;;;;;35.75;31.00;;;;;11.02;39.47;99365.88;6226058;27;96724;-68
2022/04/13 05:51:42;;;;;;;;;38.00;32.00;;;;;11.12;39.32;99361.69;6213330;28;98372;-71
2022/04/13 05:54:46;;;;;;;;;35.33;31.00;;;;;11.21;39.28;99362.25;6213517;28;98531;-70
2022/04/13 05:57:49;;;;;;;;;38.20;32.00;;;;;11.43;39.21;99365.50;6142747;28;97378;-69
2022/04/13 06:00:54;;;;;;;;;34.20;30.20;;;;;11.68;39.02;99371.75;6110737;28;97539;-70
2022/04/13 06:03:58;;;;;;;;;36.00;31.80;;;;;11.87;38.38;99375.44;6102412;28;97428;-71
2022/04/13 06:07:01;;;;;;;;;32.40;28.40;;;;;11.92;38.22;99384.56;6088709;28;96909;-72
2022/04/13 06:10:05;;;;;;;;;35.40;31.40;;;;;12.16;38.27;99388.34;6186291;28;96689;-69
2022/04/13 06:13:09;;;;;;;;;36.80;30.40;;;;;12.37;37.99;99389.81;6174212;28;97457;-70
2022/04/13 06:16:13;;;;;;;;;32.50;30.00;;;;;12.58;37.67;99384.84;6158388;28;96369;-70
2022/04/13 06:19:17;;;;;;;;;36.80;31.80;;;;;12.86;37.57;99391.63;6137062;28;96943;-69
2022/04/13 06:22:21;;;;;;;;;31.60;28.60;;;;;12.93;36.46;99392.41;6147817;28;97040;-64
2022/04/13 06:25:24;;;;;;;;;32.00;29.00;;;;;13.02;36.49;99393.75;6116172;28;96416;-70
2022/04/13 06:28:27;;;;;;;;;30.25;28.25;;;;;13.13;36.46;99393.03;6095597;28;97765;-69
2022/04/13 06:31:32;;;;;;;;;31.80;28.80;;;;;13.36;36.34;99401.31;6130314;28;96857;-66
2022/04/13 06:34:35;;;;;;;;;34.60;30.00;;;;;13.67;36.55;99404.88;6183487;28;96322;-70
2022/04/13 06:37:40;;;;;;;;;33.00;30.00;;;;;14.01;35.56;99404.19;6212314;28;99613;-65
2022/04/13 06:40:43;;;;;;;;;32.00;30.00;;;;;14.20;34.72;99394.91;6211877;28;97214;-67
2022/04/13 06:43:47;;;;;;;;;33.50;30.00;;;;;14.53;34.82;99405.25;6212850;28;97814;-71
2022/04/13 06:46:51;;;;;;;;;32.00;29.20;;;;;14.86;34.96;99401.94;6142058;28;96456;-66
2022/04/13 06:49:54;;;;;;;;;33.60;30.00;;;;;15.00;34.26;99402.53;6179789;28;96848;-69
2022/04/13 06:52:58;;;;;;;;;32.75;29.25;;;;;15.23;33.60;99394.34;6086691;28;96707;-67
2022/04/13 06:56:02;;;;;;;;;33.60;29.00;;;;;15.23;33.51;99390.81;6088310;28;96912;-67
2022/04/13 06:59:05;;;;;;;;;32.50;28.50;;;;;15.53;33.65;99395.03;6203967;28;97648;-66
2022/04/13 07:02:10;;;;;;;;;34.40;31.40;;;;;15.85;33.54;99399.97;6212126;28;97360;-65
2022/04/13 07:05:14;;;;;;;;;30.60;28.60;;;;;16.10;32.49;99405.03;6098025;28;97600;-68
2022/04/13 07:08:17;;;;;;;;;35.00;30.00;;;;;16.46;32.47;99407.31;6166213;28;96849;-66
2022/04/13 07:11:20;;;;;;;;;32.60;28.20;;;;;16.78;31.73;99408.41;6106861;28;97487;-67
2022/04/13 07:14:24;;;;;;;;;29.00;27.00;;;;;16.84;31.64;99387.50;6123376;28;97647;-67
2022/04/13 07:17:28;;;;;;;;;32.60;28.60;;;;;17.28;30.68;99402.84;6092352;28;99810;-68
2022/04/13 07:20:32;;;;;;;;;32.40;30.00;;;;;17.62;31.12;99406.31;6083954;28;96835;-66
2022/04/13 07:23:35;;;;;;;;;34.00;30.00;;;;;17.99;30.58;99411.06;6064114;28;96536;-69
2022/04/13 07:26:38;;;;;;;;;31.33;27.67;;;;;18.37;30.14;99405.44;6062795;28;97318;-65
2022/04/13 07:29:41;;;;;;;;;28.00;26.00;;;;;18.67;29.51;99412.28;6064044;28;96344;-66
2022/04/13 07:32:52;;;;;;;;;30.00;27.00;;;;;18.90;28.74;99414.63;6061999;28;96432;-70
2022/04/13 07:35:55;;;;;;;;;30.00;27.40;;;;;19.22;28.76;99418.09;6064325;28;96328;-72
2022/04/13 07:38:58;;;;;;;;;28.40;25.00;;;;;19.53;28.75;99416.38;6061842;28;98321;-67
2022/04/13 07:42:01;;;;;;;;;27.00;25.80;;;;;19.82;28.27;99411.28;6094012;28;96439;-70
2022/04/13 07:45:06;;;;;;;;;25.20;24.20;;;;;20.04;27.35;99405.56;6085635;28;97667;-70
2022/04/13 07:48:11;;;;;;;;;27.80;24.20;;;;;20.28;26.73;99413.00;6086148;28;97503;-68
2022/04/13 07:51:14;;;;;;;;;28.00;25.00;;;;;20.53;27.32;99417.69;6069679;28;96599;-69
2022/04/13 07:54:17;;;;;;;;;28.00;23.60;;;;;20.86;26.83;99415.50;6085936;28;96741;-65
2022/04/13 07:57:41;;;;;;;;;26.50;23.25;;;;;21.12;26.75;99406.94;6087479;28;96880;-66
2022/04/13 08:00:44;;;;;;;;;26.00;24.00;;;;;21.40;25.94;99408.28;6183770;28;98341;-65
2022/04/13 08:03:49;;;;;;;;;25.60;24.00;;;;;21.63;25.35;99401.31;6137075;28;96453;-69
2022/04/13 08:06:53;;;;;;;;;27.00;23.00;;;;;21.80;24.51;99409.19;6081250;28;96325;-67
2022/04/13 08:09:56;;;;;;;;;22.00;21.00;;;;;21.97;24.73;99412.44;6072674;28;97040;-67
2022/04/13 08:12:59;;;;;;;;;22.00;21.00;;;;;22.24;25.50;99411.97;6084814;28;98341;-68
2022/04/13 08:16:03;;;;;;;;;22.20;21.80;;;;;22.47;24.58;99411.28;6071060;28;96698;-69
2022/04/13 08:19:12;;;;;;;;;23.00;19.80;;;;;22.70;24.42;99406.97;6087496;28;96403;-68
2022/04/13 08:22:17;;;;;;;;;21.60;19.60;;;;;22.66;24.15;99387.47;6165841;28;96759;-71
2022/04/13 08:25:20;;;;;;;;;20.00;18.60;;;;;23.11;23.96;99404.69;6158947;28;96957;-68
2022/04/13 08:28:24;;;;;;;;;17.40;17.40;;;;;23.36;23.14;99406.34;6112621;28;97086;-68
2022/04/13 08:31:27;;;;;;;;;15.20;15.00;;;;;23.19;22.56;99401.28;6086341;28;96285;-69
2022/04/13 08:34:32;;;;;;;;;17.00;14.00;;;;;23.35;22.93;99399.19;6072659;28;97016;-70
2022/04/13 08:37:36;;;;;;;;;12.20;12.00;;;;;23.27;21.81;99406.13;6078864;28;97456;-67
2022/04/13 08:40:52;;;;;;;;;12.20;10.80;;;;;23.36;21.31;99398.06;6077111;28;98012;-69
2022/04/13 08:44:02;;;;;;;;;11.00;10.00;;;;;23.50;22.33;99390.78;6129314;28;96683;-69
2022/04/13 08:47:12;;;;;;;;;12.40;11.40;;;;;23.19;20.18;99399.34;6197449;28;97719;-69
2022/04/13 08:50:17;;;;;;;;;9.60;9.00;;;;;23.03;20.83;99375.88;6090144;28;97678;-70
2022/04/13 08:53:22;;;;;;;;;10.00;10.00;;;;;22.80;20.85;99390.41;6099657;28;97065;-71
2022/04/13 08:56:26;;;;;;;;;10.00;9.00;;;;;23.12;21.57;99387.88;6143824;28;98124;-69
2022/04/13 08:59:39;;;;;;;;;11.00;10.00;;;;;22.68;20.56;99379.75;6091319;28;97416;-67
2022/04/13 09:03:12;;;;;;;;;10.75;9.00;;;;;23.15;21.10;99383.72;6077587;28;96480;-65
2022/04/13 09:06:26;;;;;;;;;10.60;9.60;;;;;23.74;21.52;99380.56;6077660;28;97728;-64
2022/04/13 09:09:35;;;;;;;;;9.00;9.00;;;;;24.01;18.96;99379.88;6068473;28;97138;-65
2022/04/13 09:12:40;;;;;;;;;9.00;9.00;;;;;23.62;18.76;99382.91;6099026;28;96541;-72
2022/04/13 09:15:44;;;;;;;;;11.00;10.00;;;;;23.94;19.62;99387.72;6093096;28;96786;-73
2022/04/13 09:18:51;;;;;;;;;12.00;11.00;;;;;24.47;20.44;99391.06;6109809;28;97437;-69
2022/04/13 09:21:59;;;;;;;;;11.00;11.00;;;;;23.19;19.56;99391.09;6097933;28;96865;-69
2022/04/13 09:25:02;;;;;;;;;12.00;12.00;;;;;23.24;19.92;99384.72;6096487;28;97559;-66
2022/04/13 09:28:06;;;;;;;;;12.25;10.25;;;;;23.35;20.12;99385.44;6108409;28;97429;-66
2022/04/13 09:31:09;;;;;;;;;8.75;8.00;;;;;23.93;20.59;99386.06;6079672;28;98461;-71
2022/04/13 09:34:13;;;;;;;;;9.50;9.00;;;;;24.54;19.77;99386.78;6131036;28;96454;-69
2022/04/13 09:37:17;;;;;;;;;14.60;13.40;;;;;25.06;20.77;99384.81;6089842;28;96326;-67
2022/04/13 09:40:31;;;;;;;;;8.50;8.00;;;;;25.36;19.15;99378.69;6146136;28;97644;-70
2022/04/13 09:43:35;;;;;;;;;9.20;8.80;;;;;25.77;18.77;99377.88;6066765;28;96557;-70
2022/04/13 09:46:38;;;;;;;;;11.00;10.80;;;;;26.19;18.94;99371.91;6068382;28;97317;-66
2022/04/13 09:49:46;;;;;;;;;11.00;10.40;;;;;25.62;17.47;99369.91;6064206;28;98291;-68
2022/04/13 09:52:53;;;;;;;;;9.40;9.00;;;;;24.61;18.73;99369.88;6081509;28;96735;-66
2022/04/13 09:55:59;;;;;;;;;7.20;7.20;;;;;25.15;18.90;99363.66;6064378;28;97333;-71
2022/04/13 09:59:04;;;;;;;;;10.00;9.00;;;;;25.45;18.13;99362.25;6073595;28;97392;-70
2022/04/13 10:02:07;;;;;;;;;9.00;8.00;;;;;25.51;18.20;99362.94;6080866;28;96482;-68
2022/04/13 10:05:22;;;;;;;;;8.50;7.50;;;;;26.02;18.53;99360.72;6142005;28;98056;-65
2022/04/13 10:08:28;;;;;;;;;7.40;6.40;;;;;26.50;17.48;99358.19;6140079;28;96673;-68
2022/04/13 10:11:31;;;;;;;;;7.00;6.00;;;;;26.96;17.87;99362.56;6087316;28;97448;-70
2022/04/13 10:14:34;;;;;;;;;8.50;7.50;;;;;27.03;16.51;99355.44;6142064;28;96427;-68
2022/04/13 10:17:38;;;;;;;;;6.60;6.00;;;;;27.04;17.12;99359.03;6091384;28;99504;-69
2022/04/13 10:20:43;;;;;;;;;9.00;8.60;;;;;26.97;17.33;99350.38;6087778;28;97407;-67
2022/04/13 10:23:48;;;;;;;;;8.00;7.00;;;;;27.20;17.68;99351.13;6081735;28;97457;-68
2022/04/13 10:27:00;;;;;;;;;9.00;8.00;;;;;27.16;17.52;99345.41;6087445;28;96518;-71
2022/04/13 10:30:07;;;;;;;;;6.60;6.00;;;;;27.38;16.99;99359.16;6093459;28;97968;-70
2022/04/13 10:33:13;;;;;;;;;7.00;6.00;;;;;27.22;16.77;99354.41;6106595;28;97922;-64
2022/04/13 10:36:16;;;;;;;;;8.00;7.60;;;;;27.44;16.54;99348.75;6136012;28;96697;-69
2022/04/13 10:39:21;;;;;;;;;7.00;7.00;;;;;27.12;15.89;99353.53;6149494;28;97707;-67
2022/04/13 10:42:25;;;;;;;;;6.50;6.50;;;;;27.25;16.72;99343.50;6088358;28;96355;-66
2022/04/13 10:45:29;;;;;;;;;7.00;6.00;;;;;27.19;17.64;99341.19;6089065;28;97307;-67
2022/04/13 10:48:38;;;;;;;;;6.00;6.00;;;;;27.68;17.04;99337.28;6063108;28;96617;-67
2022/04/13 10:51:42;;;;;;;;;7.20;6.20;;;;;28.14;16.80;99334.75;6055934;28;98372;-71
2022/04/13 10:54:51;;;;;;;;;6.00;6.00;;;;;28.36;16.31;99330.97;6055603;28;97722;-69
2022/04/13 10:57:58;;;;;;;;;6.00;6.00;;;;;28.36;16.38;99290.16;6087195;28;97680;-67
2022/04/13 11:01:05;;;;;;;;;7.00;6.60;;;;;28.54;15.10;99326.22;6111602;28;97031;-70
2022/04/13 11:04:09;;;;;;;;;8.00;7.00;;;;;28.33;15.77;99326.91;6125039;28;96631;-67
2022/04/13 11:07:13;;;;;;;;;7.80;7.00;;;;;27.71;15.49;99322.78;6107821;28;97481;-67
2022/04/13 11:10:21;;;;;;;;;8.60;8.60;;;;;27.66;16.24;99315.41;6139553;28;96301;-68
2022/04/13 11:13:24;;;;;;;;;7.00;7.00;;;;;27.90;15.57;99321.34;6097475;28;96828;-69
2022/04/13 11:16:33;;;;;;;;;8.60;8.00;;;;;28.04;15.87;99325.91;6088585;28;96651;-71
2022/04/13 11:19:36;;;;;;;;;7.80;6.40;;;;;28.30;16.30;99319.22;6087666;28;96796;-72
2022/04/13 11:22:39;;;;;;;;;9.00;8.50;;;;;28.30;15.20;99262.94;6107876;28;97725;-68
2022/04/13 11:25:51;;;;;;;;;8.50;7.00;;;;;29.16;15.39;99324.56;6088122;28;97509;-68
2022/04/13 11:29:17;;;;;;;;;8.00;7.00;;;;;29.63;15.69;99324.47;6071454;28;97018;-70
2022/04/13 11:32:25;;;;;;;;;7.40;7.00;;;;;29.95;14.73;99329.38;6088323;28;98065;-67
2022/04/13 11:35:29;;;;;;;;;7.00;6.00;;;;;30.02;13.60;99334.34;6109365;28;96980;-72
2022/04/13 11:38:36;;;;;;;;;6.60;5.00;;;;;30.08;14.43;99338.56;6110451;28;97024;-71
2022/04/13 11:41:50;;;;;;;;;7.00;6.00;;;;;30.21;13.74;99347.78;6087656;28;97485;-68
2022/04/13 11:45:01;;;;;;;;;7.20;6.00;;;;;30.36;14.41;99341.59;6072160;28;96896;-68
2022/04/13 11:48:08;;;;;;;;;9.00;8.60;;;;;30.53;13.54;99345.06;6089282;28;96975;-69
2022/04/13 11:51:30;;;;;;;;;8.00;7.00;;;;;30.56;12.29;99329.63;6087919;28;96871;-68
2022/04/13 11:54:46;;;;;;;;;8.00;7.60;;;;;30.63;12.59;99326.31;6083693;28;96898;-69
2022/04/13 11:58:19;;;;;;;;;7.75;7.00;;;;;30.23;12.60;99339.91;6062694;28;96707;-69
2022/04/13 12:01:23;;;;;;;;;7.60;6.20;;;;;30.26;13.42;99326.13;6114009;28;97379;-71
2022/04/13 12:04:31;;;;;;;;;8.00;7.00;;;;;30.37;13.30;99329.31;6087295;28;96355;-69
2022/04/13 12:07:35;;;;;;;;;8.00;7.00;;;;;30.29;13.61;99317.13;6131029;28;96825;-67
2022/04/13 12:10:39;;;;;;;;;7.00;7.00;;;;;30.40;13.37;99320.28;6168616;28;96774;-67
2022/04/13 12:13:53;;;;;;;;;8.00;7.00;;;;;30.58;13.00;99316.22;6072760;28;96513;-70
2022/04/13 12:16:59;;;;;;;;;8.40;7.60;;;;;30.36;13.85;99281.19;6087931;28;97749;-66
2022/04/13 12:20:02;;;;;;;;;8.00;8.00;;;;;30.45;13.45;99298.63;6077554;28;97788;-68
2022/04/13 12:23:20;;;;;;;;;5.00;5.00;;;;;29.55;12.96;99290.06;6136618;28;96602;-71
2022/04/13 12:26:31;;;;;;;;;7.00;7.00;;;;;29.02;13.43;99278.72;6085221;28;97905;-68
2022/04/13 12:29:36;;;;;;;;;7.00;7.00;;;;;29.07;13.44;99265.47;6083157;28;97578;-68
2022/04/13 12:32:46;;;;;;;;;6.80;6.80;;;;;29.20;13.78;99266.38;6085442;28;97066;-69
2022/04/13 12:35:55;;;;;;;;;7.00;7.00;;;;;29.02;13.06;99254.56;6084717;28;96640;-72
2022/04/13 12:38:58;;;;;;;;;9.00;8.25;;;;;28.66;13.71;99255.00;6083866;28;97328;-69
2022/04/13 12:42:03;;;;;;;;;7.40;7.40;;;;;28.43;14.52;99257.22;6086187;28;96812;-69
2022/04/13 12:45:12;;;;;;;;;8.00;7.00;;;;;28.66;14.15;99245.88;6079256;28;96521;-65
2022/04/13 12:48:16;;;;;;;;;6.60;6.60;;;;;28.95;13.83;99248.72;6077275;28;96748;-67
2022/04/13 12:51:19;;;;;;;;;8.00;8.00;;;;;28.51;13.77;99252.78;6096447;28;97421;-68
2022/04/13 12:54:25;;;;;;;;;8.00;8.00;;;;;28.05;14.34;99245.19;6086915;28;96914;-69
2022/04/13 12:57:29;;;;;;;;;8.80;8.00;;;;;27.86;13.38;99245.50;6078327;28;96418;-68
2022/04/13 13:00:50;;;;;;;;;9.00;8.00;;;;;27.86;14.10;99251.06;6063172;28;96436;-68
2022/04/13 13:03:55;;;;;;;;;8.00;6.00;;;;;27.88;14.72;99240.47;6084923;28;97352;-69
2022/04/13 13:07:00;;;;;;;;;7.00;7.00;;;;;27.97;13.98;99240.47;6086067;28;97264;-70
2022/04/13 13:10:03;;;;;;;;;8.00;8.00;;;;;28.25;14.70;99238.97;6083872;28;97658;-73
2022/04/13 13:13:11;;;;;;;;;8.00;8.00;;;;;28.55;14.07;99237.09;6083321;28;97067;-73
2022/04/13 13:16:32;;;;;;;;;9.00;8.00;;;;;28.67;13.54;99225.31;6085414;28;98538;-68
2022/04/13 13:19:36;;;;;;;;;8.00;8.00;;;;;28.82;14.06;99239.47;6085646;28;96744;-70
2022/04/13 13:22:46;;;;;;;;;6.75;6.00;;;;;28.70;13.65;99222.69;6076652;28;97549;-64
2022/04/13 13:25:49;;;;;;;;;8.00;8.00;;;;;28.48;14.28;99236.00;6069965;28;97279;-69
2022/04/13 13:28:53;;;;;;;;;9.00;9.00;;;;;28.22;14.13;99230.50;6070169;28;97943;-73
2022/04/13 13:31:57;;;;;;;;;7.00;7.00;;;;;28.29;13.86;99219.75;6085183;28;97476;-72
2022/04/13 13:35:03;;;;;;;;;8.00;8.00;;;;;28.36;13.86;99220.03;6080024;28;98192;-70
2022/04/13 13:38:09;;;;;;;;;6.00;6.00;;;;;28.38;13.35;99218.56;6061915;28;97380;-68
2022/04/13 13:41:12;;;;;;;;;7.20;7.20;;;;;28.28;13.29;99218.09;6081262;28;97437;-69
2022/04/13 13:44:23;;;;;;;;;7.80;7.00;;;;;28.14;14.06;99217.50;6075847;28;97500;-68
2022/04/13 13:47:29;;;;;;;;;8.00;7.00;;;;;27.95;13.68;99221.38;6081308;28;97270;-70
2022/04/13 13:50:34;;;;;;;;;7.60;7.60;;;;;27.70;13.78;99213.94;6113487;28;96286;-71
2022/04/13 13:53:37;;;;;;;;;8.00;7.00;;;;;27.51;13.21;99216.22;6119562;28;97607;-71
2022/04/13 13:56:41;;;;;;;;;7.00;6.00;;;;;27.43;13.89;99219.72;6084629;28;97411;-70
2022/04/13 13:59:44;;;;;;;;;9.25;8.75;;;;;27.05;14.07;99202.91;6074268;28;96504;-69
2022/04/13 14:02:53;;;;;;;;;8.00;7.00;;;;;27.16;14.33;99223.63;6172940;28;97366;-70
2022/04/13 14:05:57;;;;;;;;;8.00;6.00;;;;;27.03;14.44;99219.00;6061848;28;96380;-71
2022/04/13 14:09:00;;;;;;;;;7.00;6.00;;;;;26.77;14.29;99223.63;6082226;28;97375;-70
2022/04/13 14:12:04;;;;;;;;;8.00;8.00;;;;;26.53;13.72;99216.56;6101525;28;98986;-70
2022/04/13 14:15:10;;;;;;;;;6.00;5.80;;;;;26.17;14.26;99215.84;6081099;28;98481;-68
2022/04/13 14:18:15;;;;;;;;;7.40;7.00;;;;;26.02;14.99;99211.53;6088557;28;97439;-70
2022/04/13 14:21:18;;;;;;;;;7.00;7.00;;;;;25.90;14.67;99213.22;6102331;28;97935;-70